Time;durP1;ratioP1;P1;durP2;ratioP2;P2;SDS_P1;SDS_P2;PMS_P1;PMS_P2;Temp;Humidity;BMP_temperature;BMP_pressure;BME280_temperature;BME280_humidity;BME280_pressure;Samples;Min_cycle;Max_cycle;Signal;HPM_P1;HPM_P2
2021/10/06 00:00:54;;;;;;;6.75;1.40;;;12.50;87.00;;;;;;4968846;28;20229;-74
2021/10/06 00:03:21;;;;;;;3.25;1.20;;;12.40;86.90;;;;;;4962670;29;20284;-75
2021/10/06 00:05:48;;;;;;;2.95;1.02;;;12.40;88.40;;;;;;4953856;29;20749;-75
2021/10/06 00:08:14;;;;;;;7.97;1.00;;;12.40;88.90;;;;;;4959936;29;20234;-78
2021/10/06 00:10:41;;;;;;;2.58;1.10;;;12.40;89.70;;;;;;4967913;28;20301;-75
2021/10/06 00:13:08;;;;;;;1.85;0.98;;;12.30;89.80;;;;;;4967082;29;20224;-75
2021/10/06 00:16:03;;;;;;;2.45;1.00;;;12.30;90.50;;;;;;4956239;29;20300;-75
2021/10/06 00:18:29;;;;;;;3.50;1.35;;;12.20;91.00;;;;;;4954500;29;20250;-73
2021/10/06 00:20:56;;;;;;;2.17;1.20;;;12.30;91.20;;;;;;4945509;29;20788;-73
2021/10/06 00:23:24;;;;;;;1.40;1.30;;;12.30;91.20;;;;;;4954608;29;20210;-74
2021/10/06 00:25:51;;;;;;;2.00;1.00;;;12.30;91.20;;;;;;4959797;29;20214;-77
2021/10/06 00:28:18;;;;;;;2.25;1.20;;;12.30;91.00;;;;;;4959730;29;20279;-77
2021/10/06 00:30:46;;;;;;;3.25;0.95;;;12.40;90.60;;;;;;4959152;28;20263;-77
2021/10/06 00:33:13;;;;;;;3.63;1.02;;;12.40;90.60;;;;;;4955145;29;20245;-78
2021/10/06 00:35:40;;;;;;;1.10;0.80;;;12.50;90.50;;;;;;4949792;29;20268;-75
2021/10/06 00:38:07;;;;;;;4.95;1.70;;;12.50;90.30;;;;;;4956402;29;20701;-77
2021/10/06 00:40:34;;;;;;;2.20;1.00;;;12.60;89.50;;;;;;4965517;28;20253;-77
2021/10/06 00:43:01;;;;;;;0.70;0.68;;;12.60;88.50;;;;;;4955690;29;20296;-76
2021/10/06 00:45:28;;;;;;;1.65;0.90;;;12.60;88.10;;;;;;4956977;29;20213;-77
2021/10/06 00:47:56;;;;;;;3.03;1.00;;;12.70;87.10;;;;;;4957256;29;20294;-74
2021/10/06 00:50:23;;;;;;;1.27;1.00;;;12.60;87.10;;;;;;4954680;28;20241;-77
2021/10/06 00:52:50;;;;;;;0.85;0.70;;;12.60;87.00;;;;;;4954259;29;20244;-75
2021/10/06 00:55:17;;;;;;;1.33;1.00;;;12.60;87.10;;;;;;4955953;28;20238;-74
2021/10/06 00:57:44;;;;;;;2.22;1.00;;;12.60;87.10;;;;;;4957437;29;20240;-76
2021/10/06 01:00:12;;;;;;;1.58;0.82;;;12.60;87.10;;;;;;4957838;28;20260;-76
2021/10/06 01:02:39;;;;;;;1.85;1.00;;;12.60;87.00;;;;;;4957826;29;20206;-75
2021/10/06 01:05:10;;;;;;;1.95;0.85;;;12.60;85.90;;;;;;4958994;29;20272;-76
2021/10/06 01:07:38;;;;;;;2.83;1.30;;;12.60;84.90;;;;;;4962375;29;20237;-76
2021/10/06 01:10:06;;;;;;;2.55;0.80;;;12.70;84.00;;;;;;4959827;28;20329;-77
2021/10/06 01:12:33;;;;;;;1.35;1.05;;;12.70;83.40;;;;;;4959660;29;20212;-77
2021/10/06 01:15:01;;;;;;;2.90;0.90;;;12.70;83.40;;;;;;4960001;29;20210;-77
2021/10/06 01:17:29;;;;;;;1.77;0.75;;;12.70;82.70;;;;;;4962653;29;20690;-74
2021/10/06 01:19:56;;;;;;;3.20;0.80;;;12.70;82.80;;;;;;4957306;28;20585;-74
2021/10/06 01:22:24;;;;;;;3.00;1.17;;;12.70;81.80;;;;;;4957594;29;20308;-73
2021/10/06 01:24:51;;;;;;;2.38;0.75;;;12.70;80.80;;;;;;4957689;29;20210;-73
2021/10/06 01:27:18;;;;;;;1.13;0.75;;;12.80;80.90;;;;;;4959373;29;20745;-76
2021/10/06 01:29:45;;;;;;;1.15;0.88;;;12.80;79.70;;;;;;4958268;28;20265;-76
2021/10/06 01:32:13;;;;;;;1.05;0.98;;;12.80;79.70;;;;;;4958332;29;20414;-74
2021/10/06 01:34:40;;;;;;;2.67;1.05;;;12.80;78.80;;;;;;4957732;29;20210;-74
2021/10/06 01:37:07;;;;;;;2.70;0.88;;;12.80;78.80;;;;;;4957215;29;20682;-74
2021/10/06 01:42:54;;;;;;;2.08;1.30;;;12.80;78.80;;;;;;4928551;29;20220;-77
2021/10/06 01:45:24;;;;;;;1.50;0.90;;;12.90;78.90;;;;;;4960256;29;20293;-77
2021/10/06 01:47:52;;;;;;;3.97;1.20;;;12.90;78.90;;;;;;4958224;29;20233;-78
2021/10/06 01:50:20;;;;;;;3.05;0.90;;;12.80;78.80;;;;;;4956990;28;20234;-76
2021/10/06 01:52:47;;;;;;;2.75;0.90;;;12.80;78.80;;;;;;4957206;29;20297;-74
2021/10/06 01:55:14;;;;;;;3.92;1.30;;;12.80;78.80;;;;;;4957447;29;20233;-75
2021/10/06 01:57:41;;;;;;;2.38;1.15;;;12.80;80.30;;;;;;4965285;29;20693;-77
2021/10/06 02:00:10;;;;;;;1.25;0.80;;;12.70;80.60;;;;;;4962858;28;20256;-77
2021/10/06 02:02:37;;;;;;;2.22;0.80;;;12.80;81.10;;;;;;4960745;29;20241;-77
2021/10/06 02:05:05;;;;;;;0.80;0.80;;;12.80;81.10;;;;;;4963662;29;20698;-78
2021/10/06 02:07:32;;;;;;;1.73;1.10;;;12.80;81.10;;;;;;4972025;28;20234;-77
2021/10/06 02:09:58;;;;;;;2.25;0.80;;;12.80;80.50;;;;;;4971704;28;20249;-75
2021/10/06 02:12:25;;;;;;;1.55;0.80;;;12.80;80.60;;;;;;4978482;28;20197;-76
2021/10/06 02:14:52;;;;;;;2.90;1.20;;;12.80;81.40;;;;;;4979948;29;20228;-74
2021/10/06 02:17:20;;;;;;;2.78;1.13;;;12.80;81.30;;;;;;4973264;29;20209;-77
2021/10/06 02:19:47;;;;;;;5.03;1.05;;;12.80;80.70;;;;;;4959247;28;20234;-76
2021/10/06 02:22:14;;;;;;;1.50;0.93;;;12.80;80.70;;;;;;4957265;29;20301;-76
2021/10/06 02:24:41;;;;;;;2.00;1.20;;;12.80;80.60;;;;;;4957770;29;20300;-76
2021/10/06 02:27:08;;;;;;;1.60;0.90;;;12.70;80.90;;;;;;4957587;29;20215;-77
2021/10/06 02:29:35;;;;;;;2.88;1.00;;;12.70;81.10;;;;;;4957870;29;20229;-76
2021/10/06 02:32:02;;;;;;;1.73;1.20;;;12.70;82.10;;;;;;4957064;29;20749;-75
2021/10/06 02:34:31;;;;;;;6.35;1.20;;;12.60;82.20;;;;;;4955493;29;20258;-75
2021/10/06 02:36:58;;;;;;;2.88;1.20;;;12.60;82.70;;;;;;4946926;29;20205;-76
2021/10/06 02:39:25;;;;;;;1.42;0.80;;;12.50;83.80;;;;;;4956856;29;20324;-76
2021/10/06 02:41:51;;;;;;;3.00;1.08;;;12.60;84.10;;;;;;4956304;28;20336;-76
2021/10/06 02:44:18;;;;;;;2.15;0.93;;;12.60;84.10;;;;;;4956704;29;20296;-77
2021/10/06 02:46:45;;;;;;;1.60;0.93;;;12.50;84.40;;;;;;4956241;29;20210;-76
2021/10/06 02:49:12;;;;;;;1.92;1.10;;;12.50;85.00;;;;;;4957710;29;20202;-78
2021/10/06 02:51:41;;;;;;;1.70;0.90;;;12.40;85.20;;;;;;4961597;28;20253;-78
2021/10/06 02:54:08;;;;;;;1.00;0.90;;;12.40;85.80;;;;;;4960299;29;20256;-77
2021/10/06 02:56:34;;;;;;;1.05;0.90;;;12.40;86.00;;;;;;4958393;29;20219;-75
2021/10/06 02:59:01;;;;;;;1.20;1.00;;;12.40;86.40;;;;;;4955659;29;20257;-75
2021/10/06 03:01:28;;;;;;;2.53;1.00;;;12.40;86.60;;;;;;4955607;28;20664;-76
2021/10/06 03:03:55;;;;;;;2.95;1.20;;;12.40;86.90;;;;;;4956145;29;20233;-76
2021/10/06 03:06:22;;;;;;;3.10;1.00;;;12.40;86.90;;;;;;4955997;29;20301;-75
2021/10/06 03:08:50;;;;;;;1.20;0.77;;;12.40;86.90;;;;;;4955863;29;20289;-75
2021/10/06 03:11:17;;;;;;;2.25;0.90;;;12.40;86.90;;;;;;4955474;28;20261;-74
2021/10/06 03:13:44;;;;;;;1.73;0.95;;;12.40;86.90;;;;;;4955534;29;20242;-74
2021/10/06 03:16:11;;;;;;;7.45;1.80;;;12.40;86.90;;;;;;4955931;29;20293;-74
2021/10/06 03:18:38;;;;;;;2.75;1.08;;;12.40;86.90;;;;;;4954573;28;20641;-74
2021/10/06 03:21:05;;;;;;;2.38;1.10;;;12.40;86.90;;;;;;4955353;28;20261;-73
2021/10/06 03:23:32;;;;;;;3.20;1.00;;;12.30;86.80;;;;;;4957200;29;20214;-74
2021/10/06 03:26:00;;;;;;;1.48;1.30;;;12.40;86.90;;;;;;4957196;29;20304;-74
2021/10/06 03:28:27;;;;;;;1.98;1.20;;;12.30;87.40;;;;;;4968760;29;20205;-75
2021/10/06 03:30:54;;;;;;;4.38;1.40;;;12.40;88.00;;;;;;4972118;28;20234;-77
2021/10/06 03:33:21;;;;;;;3.17;1.48;;;12.30;88.10;;;;;;4966750;29;20221;-75
2021/10/06 03:35:48;;;;;;;3.90;0.93;;;12.30;88.30;;;;;;4977314;29;20217;-74
2021/10/06 03:38:14;;;;;;;1.85;1.15;;;12.20;89.70;;;;;;4972026;29;20213;-78
2021/10/06 03:40:41;;;;;;;5.10;1.30;;;12.20;89.70;;;;;;4970327;23;20240;-79
2021/10/06 03:43:10;;;;;;;2.30;1.25;;;12.20;90.30;;;;;;4958795;29;20642;-78
2021/10/06 03:45:37;;;;;;;1.63;1.00;;;12.10;90.50;;;;;;4956604;29;20455;-77
2021/10/06 03:48:04;;;;;;;3.33;1.65;;;12.10;90.80;;;;;;4956080;29;20236;-76
2021/10/06 03:50:31;;;;;;;1.45;1.25;;;12.20;90.80;;;;;;4951347;28;20647;-77
2021/10/06 03:52:58;;;;;;;2.35;1.52;;;12.20;91.20;;;;;;4955238;29;20603;-77
2021/10/06 03:55:25;;;;;;;0.95;0.93;;;12.20;91.10;;;;;;4954982;29;20753;-76
2021/10/06 03:57:52;;;;;;;2.33;1.10;;;12.20;91.20;;;;;;4955219;29;20206;-77
2021/10/06 04:00:20;;;;;;;1.52;1.00;;;12.20;91.30;;;;;;4954667;29;20724;-77
2021/10/06 04:02:47;;;;;;;2.58;1.13;;;12.20;91.70;;;;;;4954555;29;20270;-77
2021/10/06 04:05:14;;;;;;;3.70;1.40;;;12.20;91.80;;;;;;4960820;29;20338;-77
2021/10/06 04:07:41;;;;;;;1.75;1.20;;;12.30;91.90;;;;;;4962648;29;20237;-77
2021/10/06 04:10:09;;;;;;;1.85;1.17;;;12.30;91.50;;;;;;4958758;28;20232;-77
2021/10/06 04:12:36;;;;;;;2.75;1.48;;;12.20;91.60;;;;;;4958530;29;20653;-78
2021/10/06 04:15:04;;;;;;;2.60;1.13;;;12.20;92.20;;;;;;4965983;29;20267;-77
2021/10/06 04:17:32;;;;;;;1.55;1.10;;;12.10;92.10;;;;;;4974937;29;20208;-77
2021/10/06 04:19:59;;;;;;;2.17;1.52;;;12.20;92.20;;;;;;4966330;29;20221;-79
2021/10/06 04:22:26;;;;;;;3.78;1.40;;;12.20;92.60;;;;;;4977560;29;20205;-77
2021/10/06 04:24:53;;;;;;;3.38;1.40;;;12.10;92.40;;;;;;4957797;29;20640;-77
2021/10/06 04:27:20;;;;;;;2.63;1.63;;;12.10;92.20;;;;;;4954414;29;20701;-77
2021/10/06 04:29:47;;;;;;;3.17;1.38;;;12.10;92.10;;;;;;4955359;28;20255;-76
2021/10/06 04:32:14;;;;;;;2.20;1.45;;;12.10;92.10;;;;;;4963528;28;20581;-79
2021/10/06 04:34:42;;;;;;;1.10;1.00;;;12.10;92.10;;;;;;4963258;28;20247;-79
2021/10/06 04:37:09;;;;;;;2.28;1.30;;;12.10;92.10;;;;;;4962388;28;20237;-78
2021/10/06 04:39:36;;;;;;;2.33;1.50;;;12.10;92.20;;;;;;4960970;28;20229;-77
2021/10/06 04:42:03;;;;;;;2.70;1.10;;;12.10;92.10;;;;;;4961688;28;20269;-77
2021/10/06 04:44:30;;;;;;;1.70;1.20;;;12.10;92.10;;;;;;4961440;29;20206;-77
2021/10/06 04:46:57;;;;;;;3.78;1.52;;;12.10;92.20;;;;;;4961141;28;20732;-77
2021/10/06 04:49:24;;;;;;;2.30;0.90;;;12.10;92.10;;;;;;4961130;29;20287;-78
2021/10/06 04:51:52;;;;;;;3.05;1.48;;;12.10;92.10;;;;;;4960967;28;20316;-77
2021/10/06 04:54:19;;;;;;;3.80;1.20;;;12.10;92.20;;;;;;4961159;29;20737;-78
2021/10/06 04:56:46;;;;;;;1.83;1.10;;;12.10;92.10;;;;;;4961790;28;20236;-78
2021/10/06 04:59:13;;;;;;;1.63;1.30;;;12.10;92.10;;;;;;4960236;28;20277;-78
2021/10/06 05:01:39;;;;;;;3.33;1.23;;;12.10;92.10;;;;;;4960868;28;20296;-78
2021/10/06 05:04:06;;;;;;;3.92;1.20;;;12.00;92.10;;;;;;4960841;28;20215;-79
2021/10/06 05:06:33;;;;;;;2.58;1.52;;;12.00;92.10;;;;;;4960805;29;20214;-78
2021/10/06 05:09:01;;;;;;;1.63;1.20;;;12.10;92.10;;;;;;4960414;28;20299;-78
2021/10/06 05:11:29;;;;;;;1.48;1.10;;;12.10;92.10;;;;;;4960944;28;20243;-78
2021/10/06 05:13:58;;;;;;;1.95;1.10;;;12.10;92.10;;;;;;4967323;29;20243;-78
2021/10/06 05:16:25;;;;;;;2.40;1.50;;;12.10;91.40;;;;;;4963519;29;20267;-78
2021/10/06 05:18:51;;;;;;;2.45;1.13;;;12.10;91.00;;;;;;4960865;28;20284;-78
2021/10/06 05:21:19;;;;;;;2.20;1.05;;;12.10;91.00;;;;;;4961077;28;20316;-78
2021/10/06 05:23:45;;;;;;;3.33;1.23;;;12.00;90.80;;;;;;4953717;29;20240;-78
2021/10/06 05:26:14;;;;;;;1.65;1.23;;;12.00;90.40;;;;;;4962795;29;20241;-78
2021/10/06 05:28:41;;;;;;;1.73;1.48;;;12.10;89.10;;;;;;4966694;29;20255;-79
2021/10/06 05:31:08;;;;;;;3.25;1.20;;;12.00;87.40;;;;;;4977174;28;20234;-79
2021/10/06 05:33:35;;;;;;;3.45;1.35;;;12.10;86.60;;;;;;4979766;29;20217;-77
2021/10/06 05:36:03;;;;;;;4.35;1.50;;;12.10;85.10;;;;;;4967569;28;20725;-78
2021/10/06 05:38:30;;;;;;;10.25;1.30;;;12.10;84.50;;;;;;4963760;29;20709;-78
2021/10/06 05:40:57;;;;;;;5.22;1.40;;;12.10;83.30;;;;;;4964780;28;20226;-78
2021/10/06 05:43:25;;;;;;;4.10;1.30;;;12.10;82.80;;;;;;4968645;29;20209;-78
2021/10/06 05:45:52;;;;;;;5.82;1.90;;;12.10;81.80;;;;;;4962216;29;20221;-78
2021/10/06 05:48:19;;;;;;;3.05;1.40;;;12.10;80.40;;;;;;4971528;29;20574;-78
2021/10/06 05:50:46;;;;;;;5.43;1.63;;;12.20;80.20;;;;;;4971606;28;20241;-78
2021/10/06 05:53:14;;;;;;;6.40;1.30;;;12.20;79.50;;;;;;4972319;29;20210;-78
2021/10/06 05:55:41;;;;;;;2.85;1.15;;;12.20;78.70;;;;;;4975204;29;20218;-77
2021/10/06 05:58:08;;;;;;;1.98;1.35;;;12.30;79.10;;;;;;4974003;29;20221;-78
2021/10/06 06:00:38;;;;;;;1.95;1.08;;;12.30;79.00;;;;;;4978323;28;20237;-77
2021/10/06 06:03:05;;;;;;;3.75;1.38;;;12.30;78.80;;;;;;4977811;29;20214;-77
2021/10/06 06:05:32;;;;;;;3.03;1.10;;;12.30;79.30;;;;;;4978622;29;20213;-76
2021/10/06 06:07:58;;;;;;;2.05;1.02;;;12.30;78.40;;;;;;4980478;29;20220;-78
2021/10/06 06:10:25;;;;;;;4.13;1.60;;;12.30;78.40;;;;;;4975127;28;20249;-78
2021/10/06 06:12:52;;;;;;;3.88;1.10;;;12.30;78.40;;;;;;4980584;29;20216;-78
2021/10/06 06:15:19;;;;;;;2.03;1.25;;;12.30;78.40;;;;;;4969821;29;20701;-78
2021/10/06 06:17:51;;;;;;;3.15;1.20;;;12.20;78.30;;;;;;4968140;28;20197;-79
2021/10/06 06:20:23;;;;;;;1.35;1.10;;;12.20;78.30;;;;;;4971596;28;20702;-79
2021/10/06 06:22:52;;;;;;;1.40;1.20;;;12.20;78.30;;;;;;4961129;29;20222;-79
2021/10/06 06:25:20;;;;;;;4.47;1.45;;;12.20;78.30;;;;;;4961763;29;20238;-79
2021/10/06 06:27:48;;;;;;;2.45;1.58;;;12.20;77.10;;;;;;4962802;29;20273;-79
2021/10/06 06:30:15;;;;;;;4.32;1.35;;;12.20;77.20;;;;;;4967321;28;20281;-79
2021/10/06 06:32:42;;;;;;;4.35;1.40;;;12.20;77.20;;;;;;4963222;29;20662;-79
2021/10/06 06:35:11;;;;;;;4.88;1.70;;;12.20;75.40;;;;;;4962360;29;20210;-78
2021/10/06 06:37:38;;;;;;;1.90;1.35;;;12.20;75.00;;;;;;4979561;28;20237;-78
2021/10/06 06:40:07;;;;;;;6.45;1.33;;;12.30;76.00;;;;;;4965228;28;20291;-79
2021/10/06 06:42:34;;;;;;;4.72;1.45;;;12.20;75.80;;;;;;4978200;28;20206;-78
2021/10/06 06:45:01;;;;;;;2.05;1.33;;;12.30;75.50;;;;;;4969227;29;20289;-78
2021/10/06 06:47:28;;;;;;;4.28;1.50;;;12.30;74.50;;;;;;4958264;29;20216;-78
2021/10/06 06:49:55;;;;;;;3.28;1.45;;;12.30;74.00;;;;;;4957693;28;20248;-78
2021/10/06 06:52:23;;;;;;;2.88;1.40;;;12.40;73.70;;;;;;4958218;28;20293;-78
2021/10/06 06:54:50;;;;;;;2.40;1.20;;;12.50;73.10;;;;;;4958218;29;20221;-78
2021/10/06 06:57:17;;;;;;;5.32;1.33;;;12.60;72.80;;;;;;4958959;29;20206;-79
2021/10/06 06:59:44;;;;;;;2.75;1.27;;;12.60;72.70;;;;;;4957712;29;20292;-78
2021/10/06 07:02:13;;;;;;;5.20;2.17;;;12.50;73.00;;;;;;4958174;28;20269;-78
2021/10/06 07:04:40;;;;;;;3.15;1.15;;;12.50;73.60;;;;;;4959427;29;20209;-77
2021/10/06 07:07:07;;;;;;;5.97;1.50;;;12.50;73.30;;;;;;4958304;29;20206;-78
2021/10/06 07:09:36;;;;;;;3.63;1.55;;;12.50;72.70;;;;;;4957325;29;20206;-78
2021/10/06 07:12:03;;;;;;;3.08;1.40;;;12.60;72.10;;;;;;4956827;28;20716;-78
2021/10/06 07:14:30;;;;;;;3.95;1.48;;;12.60;71.90;;;;;;4956630;29;20566;-78
2021/10/06 07:16:57;;;;;;;5.22;1.60;;;12.70;70.80;;;;;;4957465;29;20304;-78
2021/10/06 07:19:24;;;;;;;6.15;1.35;;;12.70;70.00;;;;;;4956747;29;20257;-78
2021/10/06 07:21:51;;;;;;;2.88;1.30;;;12.70;70.00;;;;;;4956455;28;20257;-78
2021/10/06 07:24:18;;;;;;;7.00;1.63;;;12.70;70.10;;;;;;4957019;29;20209;-78
2021/10/06 07:26:46;;;;;;;2.42;2.00;;;12.70;70.70;;;;;;4956970;29;20241;-77
2021/10/06 07:29:13;;;;;;;1.75;1.30;;;12.70;70.10;;;;;;4956838;29;20262;-78
2021/10/06 07:31:40;;;;;;;4.88;1.80;;;12.70;70.00;;;;;;4958258;28;20317;-78
2021/10/06 07:34:07;;;;;;;1.42;1.30;;;12.70;70.00;;;;;;4958227;29;20607;-77
2021/10/06 07:36:35;;;;;;;3.28;1.08;;;12.50;69.90;;;;;;4958383;29;20237;-78
2021/10/06 07:39:03;;;;;;;3.15;1.30;;;12.50;69.90;;;;;;4957896;29;20210;-78
2021/10/06 07:41:30;;;;;;;5.47;1.45;;;12.60;69.90;;;;;;4957930;28;20237;-78
2021/10/06 07:43:59;;;;;;;2.42;1.10;;;12.70;68.40;;;;;;4958319;29;20240;-79
2021/10/06 07:46:26;;;;;;;1.63;1.35;;;12.70;67.90;;;;;;4959466;28;20221;-78
2021/10/06 07:48:53;;;;;;;2.92;1.70;;;12.70;67.60;;;;;;4958695;29;20293;-79
2021/10/06 07:51:20;;;;;;;3.22;1.20;;;12.80;66.60;;;;;;4958010;28;20288;-78
2021/10/06 07:53:47;;;;;;;2.25;1.23;;;12.80;65.70;;;;;;4957541;29;20245;-78
2021/10/06 07:56:14;;;;;;;6.00;1.52;;;12.90;65.50;;;;;;4957692;29;20309;-78
2021/10/06 07:58:41;;;;;;;3.72;1.10;;;12.90;65.80;;;;;;4956824;29;20228;-78
2021/10/06 08:01:10;;;;;;;2.20;1.27;;;12.80;65.70;;;;;;4956268;28;20665;-78
2021/10/06 08:03:37;;;;;;;3.05;1.38;;;12.80;66.80;;;;;;4956767;29;20376;-78
2021/10/06 08:06:04;;;;;;;2.97;1.33;;;12.80;66.20;;;;;;4956985;28;20511;-78
2021/10/06 08:08:31;;;;;;;1.42;0.98;;;12.80;65.80;;;;;;4957259;29;20221;-78
2021/10/06 08:11:00;;;;;;;1.75;1.23;;;12.70;65.60;;;;;;4960102;28;20264;-78
2021/10/06 08:13:28;;;;;;;2.15;1.00;;;12.80;65.70;;;;;;4961713;29;20273;-80
2021/10/06 08:15:56;;;;;;;3.85;2.00;;;12.80;65.70;;;;;;4967944;29;20379;-78
2021/10/06 08:18:25;;;;;;;4.43;1.10;;;12.80;65.90;;;;;;4970554;29;20206;-77
2021/10/06 08:20:53;;;;;;;3.55;1.63;;;12.90;66.40;;;;;;4970043;28;20302;-78
2021/10/06 08:23:21;;;;;;;2.03;1.10;;;13.00;65.90;;;;;;4971135;29;20221;-79
2021/10/06 08:25:50;;;;;;;2.90;0.93;;;13.10;64.50;;;;;;4968727;29;20206;-78
2021/10/06 08:28:17;;;;;;;6.53;1.38;;;13.00;64.50;;;;;;4971036;29;20224;-79
2021/10/06 08:30:45;;;;;;;3.63;1.50;;;13.00;64.50;;;;;;4972298;28;20248;-77
2021/10/06 08:33:13;;;;;;;4.25;1.67;;;13.00;64.40;;;;;;4971153;29;20218;-78
2021/10/06 08:35:41;;;;;;;4.05;2.75;;;13.20;64.20;;;;;;4973308;29;20224;-77
2021/10/06 08:38:08;;;;;;;5.45;1.35;;;13.40;62.80;;;;;;4967775;29;20237;-77
2021/10/06 08:40:37;;;;;;;1.63;1.08;;;13.40;61.80;;;;;;4972991;28;20222;-77
2021/10/06 08:43:06;;;;;;;5.30;1.60;;;13.40;61.80;;;;;;4974364;28;20209;-77
2021/10/06 08:45:33;;;;;;;1.45;1.13;;;13.50;61.80;;;;;;4965792;29;20241;-77
2021/10/06 08:48:02;;;;;;;5.88;1.55;;;13.60;61.90;;;;;;4961952;29;20214;-76
2021/10/06 08:50:29;;;;;;;3.83;1.23;;;13.70;61.20;;;;;;4959582;28;20234;-78
2021/10/06 08:52:57;;;;;;;3.58;1.25;;;13.70;61.40;;;;;;4969740;28;20212;-77
2021/10/06 08:55:28;;;;;;;4.53;1.45;;;13.70;62.00;;;;;;4977524;29;20253;-77
2021/10/06 08:57:56;;;;;;;2.20;1.42;;;13.60;61.90;;;;;;4978157;29;20219;-77
2021/10/06 09:00:22;;;;;;;4.75;1.30;;;13.60;63.10;;;;;;4971335;28;20603;-77
2021/10/06 09:02:49;;;;;;;3.88;1.40;;;13.60;62.30;;;;;;4976636;28;20235;-76
2021/10/06 09:05:22;;;;;;;4.25;1.42;;;13.60;61.90;;;;;;4976221;29;20211;-77
2021/10/06 09:07:59;;;;;;;1.33;1.00;;;13.80;62.10;;;;;;4966004;29;20212;-78
2021/10/06 09:10:26;;;;;;;3.40;0.90;;;14.00;62.30;;;;;;4968525;28;20302;-78
2021/10/06 09:13:01;;;;;;;3.13;1.02;;;14.10;61.30;;;;;;4963541;29;20706;-77
2021/10/06 09:15:40;;;;;;;3.85;1.05;;;14.40;60.40;;;;;;4966669;28;20230;-78
2021/10/06 09:18:12;;;;;;;2.55;1.15;;;14.30;59.60;;;;;;4968973;29;20220;-77
2021/10/06 09:20:39;;;;;;;6.38;1.48;;;14.40;59.40;;;;;;4965259;28;20673;-78
2021/10/06 09:23:09;;;;;;;1.17;0.75;;;14.50;59.40;;;;;;4964991;29;20215;-77
2021/10/06 09:25:52;;;;;;;3.30;1.10;;;14.50;58.20;;;;;;4970364;29;20386;-77
2021/10/06 09:28:25;;;;;;;3.45;1.48;;;14.50;58.10;;;;;;4977812;29;20210;-77
2021/10/06 09:30:58;;;;;;;3.40;1.00;;;14.40;58.80;;;;;;4981160;28;20218;-77
2021/10/06 09:33:26;;;;;;;4.63;1.20;;;14.30;59.10;;;;;;4974254;29;20217;-77
2021/10/06 09:36:07;;;;;;;3.08;1.20;;;14.40;59.20;;;;;;4972314;29;20241;-78
2021/10/06 09:38:49;;;;;;;5.43;1.30;;;14.50;59.00;;;;;;4967874;29;20656;-78
2021/10/06 09:41:36;;;;;;;3.70;1.15;;;14.30;59.10;;;;;;4980867;23;20255;-79
2021/10/06 09:44:07;;;;;;;3.53;1.08;;;14.20;57.90;;;;;;4971237;29;20213;-78
2021/10/06 09:46:51;;;;;;;2.58;1.58;;;14.20;58.30;;;;;;4965173;29;20238;-77
2021/10/06 09:49:21;;;;;;;2.88;1.27;;;14.50;57.40;;;;;;4966073;29;20263;-77
2021/10/06 09:51:48;;;;;;;1.27;1.17;;;14.90;56.60;;;;;;4960996;28;20299;-77
2021/10/06 09:54:17;;;;;;;2.47;1.40;;;15.30;55.10;;;;;;4962005;29;20220;-76
2021/10/06 09:56:46;;;;;;;4.10;1.30;;;15.70;52.90;;;;;;4968877;29;20453;-77
2021/10/06 09:59:14;;;;;;;3.07;1.30;;;15.80;51.70;;;;;;4965329;29;20870;-76
2021/10/06 10:01:42;;;;;;;3.83;1.40;;;15.60;52.30;;;;;;4958301;28;20539;-76
2021/10/06 10:04:11;;;;;;;7.05;1.30;;;15.60;52.90;;;;;;4961952;29;20462;-78
2021/10/06 10:06:39;;;;;;;4.33;1.10;;;15.60;52.50;;;;;;4963625;29;20245;-78
2021/10/06 10:09:08;;;;;;;2.10;1.27;;;15.50;52.90;;;;;;4965571;29;20435;-78
2021/10/06 10:11:39;;;;;;;1.85;1.02;;;15.50;52.80;;;;;;4967958;28;20464;-77
2021/10/06 10:14:07;;;;;;;3.45;1.10;;;15.50;53.80;;;;;;4966431;29;20207;-78
2021/10/06 10:16:36;;;;;;;2.15;1.05;;;15.50;52.30;;;;;;4966769;29;20675;-78
2021/10/06 10:19:07;;;;;;;2.00;0.90;;;15.50;52.10;;;;;;4971052;29;20374;-78
2021/10/06 10:21:38;;;;;;;5.40;1.20;;;15.50;51.30;;;;;;4966422;28;20589;-79
2021/10/06 10:24:11;;;;;;;2.20;1.17;;;15.40;50.50;;;;;;4965616;29;20539;-78
2021/10/06 10:26:58;;;;;;;4.57;1.42;;;15.40;50.30;;;;;;4964495;29;20792;-77
2021/10/06 10:29:43;;;;;;;2.80;1.35;;;15.20;50.00;;;;;;4964595;29;20226;-78
2021/10/06 10:32:11;;;;;;;3.38;1.10;;;15.00;50.60;;;;;;4965077;28;20224;-79
2021/10/06 10:34:58;;;;;;;4.80;1.85;;;15.00;50.70;;;;;;4967899;29;20241;-77
2021/10/06 10:38:19;;;;;;;2.03;0.98;;;15.10;51.00;;;;;;4967729;29;20246;-78
2021/10/06 10:40:58;;;;;;;3.33;1.08;;;15.30;51.00;;;;;;4965120;28;20236;-78
2021/10/06 10:43:29;;;;;;;3.75;1.17;;;15.50;50.30;;;;;;4964663;29;20217;-77
2021/10/06 10:46:13;;;;;;;7.73;1.43;;;15.60;50.20;;;;;;4962447;29;20241;-77
2021/10/06 10:49:03;;;;;;;1.15;1.02;;;15.60;48.50;;;;;;4963879;29;20936;-77
2021/10/06 10:51:46;;;;;;;2.90;1.13;;;15.60;49.20;;;;;;4965219;28;20256;-78
2021/10/06 10:54:29;;;;;;;2.35;1.10;;;15.70;49.70;;;;;;4964050;29;20215;-80
2021/10/06 10:56:56;;;;;;;6.60;1.33;;;15.90;48.40;;;;;;4959478;29;20287;-78
2021/10/06 10:59:26;;;;;;;4.10;1.60;;;16.10;45.20;;;;;;4960233;29;20493;-76
2021/10/06 11:01:56;;;;;;;2.27;1.43;;;16.10;45.20;;;;;;4960466;28;20273;-77
2021/10/06 11:04:27;;;;;;;3.63;0.93;;;16.20;45.20;;;;;;4958759;29;20495;-77
2021/10/06 11:06:58;;;;;;;3.97;1.00;;;15.90;45.00;;;;;;4961540;29;20475;-76
2021/10/06 11:09:49;;;;;;;5.47;1.40;;;15.80;44.90;;;;;;4960877;29;20811;-76
2021/10/06 11:12:40;;;;;;;1.23;1.10;;;15.50;44.60;;;;;;4959063;28;20225;-76
2021/10/06 11:15:32;;;;;;;3.05;1.30;;;15.40;44.50;;;;;;4957988;29;20216;-76
2021/10/06 11:18:15;;;;;;;2.35;1.10;;;15.40;45.80;;;;;;4951053;29;20542;-76
2021/10/06 11:20:44;;;;;;;2.65;1.10;;;15.50;44.60;;;;;;4956298;28;20233;-76
2021/10/06 11:23:52;;;;;;;1.85;1.10;;;15.50;45.30;;;;;;4956534;29;20769;-75
2021/10/06 11:26:25;;;;;;;5.68;1.55;;;15.30;47.70;;;;;;4962979;29;20308;-77
2021/10/06 11:28:54;;;;;;;3.27;1.10;;;15.50;47.50;;;;;;4962148;29;20208;-76
2021/10/06 11:31:25;;;;;;;4.43;1.30;;;15.50;46.00;;;;;;4961681;28;20484;-75
2021/10/06 11:34:06;;;;;;;3.40;1.20;;;15.70;45.90;;;;;;4963460;29;20640;-76
2021/10/06 11:36:35;;;;;;;2.00;1.27;;;15.80;45.20;;;;;;4970145;29;20447;-78
2021/10/06 11:39:10;;;;;;;1.83;0.80;;;15.90;47.80;;;;;;4966462;28;20527;-78
2021/10/06 11:41:42;;;;;;;4.67;1.40;;;15.80;48.40;;;;;;4956022;28;21000;-77
2021/10/06 11:44:09;;;;;;;2.60;1.25;;;15.80;48.40;;;;;;4956315;29;20460;-77
2021/10/06 11:46:37;;;;;;;3.80;1.37;;;15.80;48.50;;;;;;4957138;29;20244;-77
2021/10/06 11:49:07;;;;;;;5.30;1.20;;;15.90;48.20;;;;;;4956250;29;20462;-77
2021/10/06 11:51:39;;;;;;;2.47;0.90;;;15.80;47.20;;;;;;4956033;28;20952;-77
2021/10/06 11:54:07;;;;;;;1.95;1.10;;;15.60;48.00;;;;;;4956497;29;20217;-77
2021/10/06 11:56:34;;;;;;;4.40;1.13;;;15.50;48.10;;;;;;4955791;29;20212;-77
2021/10/06 11:59:13;;;;;;;2.38;0.98;;;15.60;47.90;;;;;;4955406;29;20308;-76
2021/10/06 12:02:00;;;;;;;3.17;1.42;;;15.70;47.90;;;;;;4956231;28;20322;-77
2021/10/06 12:04:29;;;;;;;2.63;0.97;;;15.80;48.20;;;;;;4956553;29;20219;-77
2021/10/06 12:07:00;;;;;;;3.20;1.67;;;15.80;49.30;;;;;;4956199;29;20457;-77
2021/10/06 12:09:33;;;;;;;2.67;1.02;;;15.60;52.10;;;;;;4956765;29;20467;-78
2021/10/06 12:12:00;;;;;;;6.00;1.40;;;15.60;52.40;;;;;;4956126;28;20316;-77
2021/10/06 12:14:31;;;;;;;5.27;1.10;;;15.60;52.80;;;;;;4955822;29;20534;-77
2021/10/06 12:17:03;;;;;;;3.72;1.20;;;15.60;50.50;;;;;;4956327;29;20465;-79
2021/10/06 12:19:31;;;;;;;4.70;1.95;;;15.40;54.70;;;;;;4956666;29;20231;-77
2021/10/06 12:21:58;;;;;;;3.40;1.35;;;15.00;60.20;;;;;;4955523;28;20267;-78
2021/10/06 12:24:31;;;;;;;1.75;1.10;;;14.70;61.90;;;;;;4955768;29;20306;-78
2021/10/06 12:26:59;;;;;;;4.40;1.23;;;14.50;64.40;;;;;;4955427;29;20214;-78
2021/10/06 12:29:28;;;;;;;5.72;1.50;;;14.30;63.60;;;;;;4957628;29;20469;-78
2021/10/06 12:32:10;;;;;;;3.83;1.70;;;14.20;65.90;;;;;;4962183;28;20230;-78
2021/10/06 12:34:38;;;;;;;3.03;1.60;;;14.30;65.90;;;;;;4958496;29;20233;-78
2021/10/06 12:37:06;;;;;;;1.80;1.20;;;14.60;65.50;;;;;;4964652;29;20348;-78
2021/10/06 12:39:33;;;;;;;2.92;1.50;;;15.00;63.20;;;;;;4963416;29;20241;-78
2021/10/06 12:42:02;;;;;;;4.75;1.05;;;15.50;63.70;;;;;;4955374;28;20770;-78
2021/10/06 12:44:32;;;;;;;5.88;1.50;;;15.60;60.10;;;;;;4955962;29;20212;-77
2021/10/06 12:47:00;;;;;;;3.50;1.07;;;15.70;57.50;;;;;;4955925;29;20240;-77
2021/10/06 12:49:30;;;;;;;3.07;1.20;;;15.80;56.00;;;;;;4956398;29;20484;-78
2021/10/06 12:52:01;;;;;;;3.90;1.23;;;16.10;55.20;;;;;;4959881;28;20508;-78
2021/10/06 12:54:30;;;;;;;5.53;1.00;;;16.10;55.00;;;;;;4963734;29;20457;-78
2021/10/06 12:57:00;;;;;;;6.83;1.70;;;16.20;54.70;;;;;;4961634;29;21024;-79
2021/10/06 12:59:33;;;;;;;1.35;1.10;;;16.20;52.60;;;;;;4961238;29;20460;-78
2021/10/06 13:02:01;;;;;;;2.83;1.13;;;16.00;53.00;;;;;;4960373;28;20233;-78